createdAt,value
2022-12-03T00:01:45.997Z,44.49
2022-12-03T00:11:47.354Z,44.16
2022-12-03T00:21:48.752Z,43.82
2022-12-03T00:31:50.206Z,43.89
2022-12-03T00:41:51.581Z,43.75
2022-12-03T00:51:52.961Z,43.84
2022-12-03T01:01:54.494Z,43.94
2022-12-03T01:11:55.984Z,43.81
2022-12-03T01:21:57.396Z,44.27
2022-12-03T01:32:16.598Z,44.22
2022-12-03T01:42:38.643Z,44.27
2022-12-03T01:52:40.026Z,44.27
2022-12-03T02:02:41.424Z,44.52
2022-12-03T02:13:08.981Z,44.37
2022-12-03T02:23:23.808Z,44.62
2022-12-03T02:33:25.219Z,44.67
2022-12-03T02:43:26.788Z,44.81
2022-12-03T02:53:33.401Z,44.93
2022-12-03T03:03:34.763Z,45.23
2022-12-03T03:13:36.356Z,45.01
2022-12-03T03:23:37.750Z,45.15
2022-12-03T03:33:39.506Z,44.82
2022-12-03T03:43:40.965Z,44.42
2022-12-03T03:53:45.034Z,44.25
2022-12-03T04:03:46.524Z,43.84
2022-12-03T04:13:48.136Z,43.75
2022-12-03T04:23:49.550Z,43.57
2022-12-03T04:34:09.687Z,43.46
2022-12-03T04:44:29.625Z,43.32
2022-12-03T04:54:31.013Z,43.25
2022-12-03T05:04:32.430Z,43.24
2022-12-03T05:14:33.827Z,43.13
2022-12-03T05:24:35.228Z,43.23
2022-12-03T05:34:36.602Z,43.02
2022-12-03T05:44:37.989Z,42.78
2022-12-03T05:54:39.529Z,42.77
2022-12-03T06:04:40.919Z,42.69
2022-12-03T06:14:42.455Z,42.76
2022-12-03T06:24:43.825Z,42.72
2022-12-03T06:34:45.240Z,42.69
2022-12-03T06:44:46.634Z,42.43
2022-12-03T06:54:48.039Z,42.59
2022-12-03T07:04:49.498Z,42.41
2022-12-03T07:14:51.440Z,42.44
2022-12-03T07:24:53.470Z,42.23
2022-12-03T07:34:55.313Z,42.28
2022-12-03T07:44:56.935Z,42.37
2022-12-03T07:54:58.332Z,42.27
2022-12-03T08:04:59.711Z,42.30
2022-12-03T08:15:01.092Z,42.10
2022-12-03T08:25:02.630Z,42.39
2022-12-03T08:35:10.831Z,42.33
2022-12-03T08:45:40.073Z,42.30
2022-12-03T08:55:45.737Z,42.24
2022-12-03T09:05:47.155Z,42.12
2022-12-03T09:15:48.571Z,42.06
2022-12-03T09:25:49.937Z,41.81
2022-12-03T09:35:51.383Z,41.80
2022-12-03T09:45:52.961Z,41.95
2022-12-03T09:55:54.565Z,41.80
2022-12-03T10:05:56.001Z,41.83
2022-12-03T10:15:58.720Z,41.74
2022-12-03T10:26:04.841Z,41.70
2022-12-03T10:36:20.594Z,41.49
2022-12-03T10:46:22.352Z,41.36
2022-12-03T10:56:25.543Z,41.55
2022-12-03T11:06:27.078Z,41.70
2022-12-03T11:16:51.725Z,41.66
2022-12-03T11:26:53.005Z,41.64
2022-12-03T11:37:09.311Z,41.74
2022-12-03T11:47:13.937Z,41.60
2022-12-03T11:57:25.281Z,41.58
2022-12-03T12:07:36.603Z,41.50
2022-12-03T12:17:38.476Z,41.31
2022-12-03T12:27:49.225Z,41.39
2022-12-03T12:37:59.615Z,41.36
2022-12-03T12:48:09.743Z,41.47
2022-12-03T12:58:19.092Z,41.51
2022-12-03T13:08:37.672Z,41.42
2022-12-03T13:18:55.304Z,41.47
2022-12-03T13:28:57.256Z,41.57
2022-12-03T13:38:58.653Z,41.27
2022-12-03T13:49:01.897Z,41.70
2022-12-03T13:59:04.262Z,41.82
2022-12-03T14:09:05.748Z,41.92
2022-12-03T14:19:07.478Z,41.80
2022-12-03T14:29:09.206Z,42.23
2022-12-03T14:39:10.705Z,42.06
2022-12-03T14:49:12.763Z,42.07
2022-12-03T14:59:14.134Z,41.79
2022-12-03T15:09:15.591Z,42.22
2022-12-03T15:19:17.122Z,42.48
2022-12-03T15:29:19.313Z,42.78
2022-12-03T15:39:20.682Z,42.78
2022-12-03T15:49:22.143Z,43.03
2022-12-03T15:59:23.521Z,42.82
2022-12-03T16:09:27.370Z,43.11
2022-12-03T16:19:29.093Z,42.97
2022-12-03T16:29:30.566Z,43.19
2022-12-03T16:39:32.133Z,43.59
2022-12-03T16:49:33.512Z,43.59
2022-12-03T16:59:34.918Z,43.72
2022-12-03T17:09:36.307Z,43.48
2022-12-03T17:19:37.696Z,43.68
2022-12-03T17:29:39.360Z,43.70
2022-12-03T17:39:40.743Z,43.66
2022-12-03T17:49:42.127Z,43.73
2022-12-03T17:59:43.519Z,43.87
2022-12-03T18:09:44.889Z,43.96
2022-12-03T18:19:46.266Z,43.89
2022-12-03T18:29:47.751Z,44.16
2022-12-03T18:39:49.145Z,43.97
2022-12-03T18:49:50.539Z,43.98
2022-12-03T18:59:52.130Z,44.16
2022-12-03T19:09:53.863Z,44.07
2022-12-03T19:19:55.834Z,44.31
2022-12-03T19:29:58.009Z,44.24
2022-12-03T19:39:59.824Z,44.24
2022-12-03T19:50:01.376Z,44.29
2022-12-03T20:00:03.522Z,44.38
2022-12-03T20:10:05.724Z,44.42
2022-12-03T20:20:07.658Z,44.35
2022-12-03T20:30:09.422Z,44.40
2022-12-03T20:40:11.327Z,44.44
2022-12-03T20:50:12.703Z,44.15
2022-12-03T21:00:14.514Z,43.97
2022-12-03T21:10:34.626Z,43.53
2022-12-03T21:20:42.699Z,43.27
2022-12-03T21:30:44.093Z,43.13
2022-12-03T21:40:45.697Z,42.97
2022-12-03T21:50:56.774Z,42.70
2022-12-03T22:00:58.236Z,42.62
2022-12-03T22:11:04.183Z,42.61
2022-12-03T22:21:06.273Z,42.63
2022-12-03T22:31:07.966Z,42.30
2022-12-03T22:41:10.507Z,42.30
2022-12-03T22:51:15.301Z,42.40
2022-12-03T23:01:30.315Z,42.72
2022-12-03T23:11:31.762Z,42.62
2022-12-03T23:21:34.127Z,42.66
2022-12-03T23:31:36.076Z,43.03
2022-12-03T23:41:37.525Z,43.20
2022-12-03T23:51:39.063Z,42.95
